createdAt,value
2018-12-13T00:01:17.956Z,3.60
2018-12-13T00:05:20.572Z,3.50
2018-12-13T00:09:23.309Z,3.40
2018-12-13T00:13:25.926Z,3.30
2018-12-13T00:17:28.549Z,3.30
2018-12-13T00:21:31.152Z,3.20
2018-12-13T00:25:33.768Z,3.10
2018-12-13T00:29:36.376Z,3.10
2018-12-13T00:33:38.988Z,3.00
2018-12-13T00:37:41.700Z,2.90
2018-12-13T00:41:44.321Z,2.90
2018-12-13T00:45:47.037Z,2.80
2018-12-13T00:49:49.663Z,2.70
2018-12-13T00:53:52.278Z,2.60
2018-12-13T00:57:54.917Z,2.60
2018-12-13T01:01:57.529Z,2.60
2018-12-13T01:06:00.217Z,2.50
2018-12-13T01:10:02.939Z,2.50
2018-12-13T01:14:05.553Z,2.60
2018-12-13T01:18:08.135Z,2.60
2018-12-13T01:22:10.747Z,2.60
2018-12-13T01:26:13.373Z,2.60
2018-12-13T01:30:15.993Z,2.60
2018-12-13T01:34:18.629Z,2.60
2018-12-13T01:38:21.226Z,2.60
2018-12-13T01:42:23.853Z,2.60
2018-12-13T01:46:26.584Z,2.70
2018-12-13T01:50:29.198Z,2.70
2018-12-13T01:54:31.807Z,2.70
2018-12-13T01:58:34.398Z,2.70
2018-12-13T02:02:37.013Z,2.70
2018-12-13T02:06:39.643Z,2.70
2018-12-13T02:10:42.257Z,2.70
2018-12-13T02:14:44.868Z,2.70
2018-12-13T02:18:47.468Z,2.70
2018-12-13T02:22:50.077Z,2.70
2018-12-13T02:26:52.697Z,2.60
2018-12-13T02:30:55.313Z,2.60
2018-12-13T02:34:57.933Z,2.60
2018-12-13T02:39:00.538Z,2.60
2018-12-13T02:43:03.273Z,2.50
2018-12-13T02:47:05.897Z,2.50
2018-12-13T02:51:08.521Z,2.50
2018-12-13T02:55:11.132Z,2.50
2018-12-13T02:59:13.742Z,2.50
2018-12-13T03:03:16.461Z,2.40
2018-12-13T03:07:19.181Z,2.40
2018-12-13T03:11:21.795Z,2.40
2018-12-13T03:15:24.421Z,2.30
2018-12-13T03:19:27.023Z,2.30
2018-12-13T03:23:29.637Z,2.30
2018-12-13T03:27:32.261Z,2.20
2018-12-13T03:31:34.902Z,2.20
2018-12-13T03:35:37.643Z,2.20
2018-12-13T03:39:40.365Z,2.10
2018-12-13T03:43:42.987Z,2.10
2018-12-13T03:47:45.603Z,2.10
2018-12-13T03:51:48.221Z,2.10
2018-12-13T03:55:50.817Z,2.00
2018-12-13T03:59:53.441Z,2.00
2018-12-13T04:03:56.052Z,2.00
2018-12-13T04:07:58.664Z,2.00
2018-12-13T04:12:01.285Z,2.00
2018-12-13T04:16:03.873Z,2.00
2018-12-13T04:20:06.587Z,2.00
2018-12-13T04:24:09.193Z,2.00
2018-12-13T04:28:11.909Z,2.00
2018-12-13T04:32:14.529Z,2.00
2018-12-13T04:36:17.129Z,2.00
2018-12-13T04:40:19.841Z,2.00
2018-12-13T04:44:22.470Z,2.00
2018-12-13T04:48:25.080Z,2.00
2018-12-13T04:52:27.694Z,2.00
2018-12-13T04:56:30.290Z,2.00
2018-12-13T05:00:32.912Z,1.90
2018-12-13T05:04:35.529Z,1.90
2018-12-13T05:08:38.168Z,1.90
2018-12-13T05:12:47.288Z,1.90
2018-12-13T05:16:49.937Z,1.90
2018-12-13T05:20:52.556Z,1.90
2018-12-13T05:24:55.196Z,1.90
2018-12-13T05:28:57.812Z,1.90
2018-12-13T05:33:00.428Z,1.90
2018-12-13T05:37:03.043Z,1.90
2018-12-13T05:41:05.685Z,1.90
2018-12-13T05:45:08.292Z,2.00
2018-12-13T05:49:10.921Z,2.00
2018-12-13T05:53:13.529Z,2.00
2018-12-13T05:57:16.129Z,2.10
2018-12-13T06:01:18.761Z,2.10
2018-12-13T06:05:21.394Z,2.10
2018-12-13T06:09:24.014Z,2.10
2018-12-13T06:13:26.637Z,2.20
2018-12-13T06:17:29.458Z,2.20
2018-12-13T06:21:36.800Z,2.20
2018-12-13T06:25:36.777Z,2.20
2018-12-13T06:29:43.084Z,2.30
2018-12-13T06:33:44.013Z,2.30
2018-12-13T06:37:46.702Z,2.30
2018-12-13T06:41:49.337Z,2.30
2018-12-13T06:45:51.960Z,2.40
2018-12-13T06:49:54.570Z,2.40
2018-12-13T06:53:57.164Z,2.40
2018-12-13T06:57:59.791Z,2.40
2018-12-13T07:02:02.416Z,2.40
2018-12-13T07:06:05.043Z,2.50
2018-12-13T07:10:07.756Z,2.50
2018-12-13T07:14:10.363Z,2.50
2018-12-13T07:18:12.977Z,2.50
2018-12-13T07:22:15.584Z,2.50
2018-12-13T07:26:18.232Z,2.60
2018-12-13T07:30:20.841Z,2.60
2018-12-13T07:34:23.432Z,2.60
2018-12-13T07:38:26.051Z,2.70
2018-12-13T07:42:28.679Z,2.70
2018-12-13T07:46:32.810Z,2.70
2018-12-13T07:50:35.520Z,2.70
2018-12-13T07:54:38.127Z,2.80
2018-12-13T07:58:40.732Z,2.80
2018-12-13T08:02:43.332Z,2.80
2018-12-13T08:06:45.937Z,2.80
2018-12-13T08:10:48.619Z,2.90
2018-12-13T08:14:51.222Z,2.90
2018-12-13T08:18:53.830Z,2.90
2018-12-13T08:22:56.544Z,2.90
2018-12-13T08:26:59.156Z,3.00
2018-12-13T08:31:01.878Z,3.00
2018-12-13T08:35:04.702Z,3.00
2018-12-13T08:39:07.981Z,3.10
2018-12-13T08:43:10.635Z,3.00
2018-12-13T08:47:13.345Z,3.10
2018-12-13T08:51:15.952Z,3.10
2018-12-13T08:55:18.563Z,3.10
2018-12-13T08:59:21.172Z,3.10
2018-12-13T09:03:24.434Z,3.10
2018-12-13T09:07:27.069Z,3.20
2018-12-13T09:11:29.682Z,3.20
2018-12-13T09:15:32.344Z,3.20
2018-12-13T09:19:35.049Z,3.20
2018-12-13T09:23:37.653Z,3.20
2018-12-13T09:27:40.329Z,3.30
2018-12-13T09:31:42.940Z,3.30
2018-12-13T09:35:45.532Z,3.30
2018-12-13T09:39:48.161Z,3.30
2018-12-13T09:43:50.777Z,3.40
2018-12-13T09:47:53.465Z,3.40
2018-12-13T09:51:56.064Z,3.40
2018-12-13T09:55:58.668Z,3.50
2018-12-13T10:00:01.407Z,3.50
2018-12-13T10:04:04.024Z,3.60
2018-12-13T10:08:06.649Z,3.60
2018-12-13T10:12:09.236Z,3.70
2018-12-13T10:16:11.863Z,3.70
2018-12-13T10:20:14.473Z,3.70
2018-12-13T10:24:17.097Z,3.80
2018-12-13T10:28:19.704Z,3.80
2018-12-13T10:32:22.292Z,3.80
2018-12-13T10:36:25.683Z,3.90
2018-12-13T10:40:28.470Z,3.90
2018-12-13T10:44:36.122Z,3.90
2018-12-13T10:48:38.738Z,3.90
2018-12-13T10:52:41.326Z,4.00
2018-12-13T10:56:43.981Z,4.00
2018-12-13T11:00:51.990Z,4.00
2018-12-13T11:04:54.705Z,4.00
2018-12-13T11:08:59.571Z,4.10
2018-12-13T11:13:01.930Z,4.10
2018-12-13T11:17:04.639Z,4.10
2018-12-13T11:21:07.260Z,4.10
2018-12-13T11:25:09.871Z,4.20
2018-12-13T11:29:23.010Z,4.20
2018-12-13T11:33:25.616Z,4.20
2018-12-13T11:37:28.228Z,4.20
2018-12-13T11:41:30.852Z,4.20
2018-12-13T11:45:33.457Z,4.30
2018-12-13T11:49:36.074Z,4.30
2018-12-13T11:53:39.093Z,4.30
2018-12-13T11:57:41.700Z,4.30
2018-12-13T12:01:44.313Z,4.30
2018-12-13T12:05:46.924Z,4.30
2018-12-13T12:09:49.537Z,4.30
2018-12-13T12:13:52.148Z,4.30
2018-12-13T12:17:54.869Z,4.40
2018-12-13T12:21:57.483Z,4.30
2018-12-13T12:26:00.097Z,4.30
2018-12-13T12:30:02.822Z,4.30
2018-12-13T12:34:05.422Z,4.30
2018-12-13T12:38:08.029Z,4.30
2018-12-13T12:42:10.661Z,4.30
2018-12-13T12:46:13.360Z,4.30
2018-12-13T12:50:16.016Z,4.30
2018-12-13T12:54:18.617Z,4.30
2018-12-13T12:58:21.222Z,4.30
2018-12-13T13:02:23.825Z,4.30
2018-12-13T13:06:26.444Z,4.30
2018-12-13T13:10:29.037Z,4.30
2018-12-13T13:14:31.660Z,4.20
2018-12-13T13:18:39.006Z,4.20
2018-12-13T13:22:38.901Z,4.20
2018-12-13T13:26:41.573Z,4.20
2018-12-13T13:30:44.164Z,4.20
2018-12-13T13:34:46.779Z,4.20
2018-12-13T13:38:49.380Z,4.20
2018-12-13T13:42:52.018Z,4.20
2018-12-13T13:46:54.625Z,4.20
2018-12-13T13:50:57.216Z,4.20
2018-12-13T13:54:59.825Z,4.20
2018-12-13T13:59:02.459Z,4.20
2018-12-13T14:03:05.077Z,4.10
2018-12-13T14:07:07.693Z,4.20
2018-12-13T14:11:10.280Z,4.20
2018-12-13T14:15:12.889Z,4.10
2018-12-13T14:19:15.534Z,4.10
2018-12-13T14:23:18.252Z,4.10
2018-12-13T14:27:20.902Z,4.10
2018-12-13T14:31:23.488Z,4.10
2018-12-13T14:35:26.089Z,4.10
2018-12-13T14:39:28.916Z,4.00
2018-12-13T14:43:32.128Z,4.00
2018-12-13T14:47:35.148Z,4.00
2018-12-13T14:51:37.734Z,4.00
2018-12-13T14:55:40.341Z,4.00
2018-12-13T14:59:47.122Z,4.00
2018-12-13T15:03:48.039Z,3.90
2018-12-13T15:07:50.659Z,3.90
2018-12-13T15:11:53.373Z,3.90
2018-12-13T15:15:56.428Z,3.90
2018-12-13T15:19:59.168Z,3.80
2018-12-13T15:24:02.049Z,3.80
2018-12-13T15:28:07.085Z,3.80
2018-12-13T15:32:11.234Z,3.80
2018-12-13T15:36:15.642Z,3.70
2018-12-13T15:40:19.770Z,3.70
2018-12-13T15:44:24.048Z,3.70
2018-12-13T15:48:28.592Z,3.70
2018-12-13T15:52:32.916Z,3.70
2018-12-13T15:56:36.656Z,3.70
2018-12-13T16:00:40.237Z,3.70
2018-12-13T16:04:43.203Z,3.70
2018-12-13T16:08:47.650Z,3.70
2018-12-13T16:12:50.361Z,3.70
2018-12-13T16:16:52.996Z,3.70
2018-12-13T16:20:55.945Z,3.60
2018-12-13T16:24:58.676Z,3.60
2018-12-13T16:29:01.281Z,3.60
2018-12-13T16:33:03.996Z,3.60
2018-12-13T16:37:06.613Z,3.60
2018-12-13T16:41:09.311Z,3.60
2018-12-13T16:45:12.951Z,3.60
2018-12-13T16:49:16.784Z,3.60
2018-12-13T16:53:19.410Z,3.50
2018-12-13T16:57:22.053Z,3.50
2018-12-13T17:01:24.738Z,3.50
2018-12-13T17:05:27.386Z,3.40
2018-12-13T17:09:29.994Z,3.40
2018-12-13T17:13:32.633Z,3.40
2018-12-13T17:17:35.241Z,3.40
2018-12-13T17:21:37.864Z,3.40
2018-12-13T17:25:40.980Z,3.40
2018-12-13T17:29:43.577Z,3.50
2018-12-13T17:33:46.341Z,3.40
2018-12-13T17:37:48.960Z,3.40
2018-12-13T17:41:51.602Z,3.40
2018-12-13T17:45:54.412Z,3.40
2018-12-13T17:49:57.005Z,3.40
2018-12-13T17:53:59.628Z,3.40
2018-12-13T17:58:02.276Z,3.30
2018-12-13T18:02:05.279Z,3.30
2018-12-13T18:06:07.898Z,3.30
2018-12-13T18:10:10.953Z,3.30
2018-12-13T18:14:13.561Z,3.30
2018-12-13T18:18:16.176Z,3.30
2018-12-13T18:22:18.794Z,3.30
2018-12-13T18:26:21.412Z,3.30
2018-12-13T18:30:24.017Z,3.30
2018-12-13T18:34:26.624Z,3.30
2018-12-13T18:38:29.232Z,3.30
2018-12-13T18:42:31.864Z,3.30
2018-12-13T18:46:34.535Z,3.30
2018-12-13T18:50:37.117Z,3.30
2018-12-13T18:54:39.716Z,3.30
2018-12-13T18:58:42.327Z,3.30
2018-12-13T19:02:44.932Z,3.30
2018-12-13T19:06:47.699Z,3.30
2018-12-13T19:10:50.526Z,3.30
2018-12-13T19:14:53.146Z,3.30
2018-12-13T19:18:56.008Z,3.30
2018-12-13T19:22:58.617Z,3.30
2018-12-13T19:27:01.298Z,3.30
2018-12-13T19:31:04.288Z,3.30
2018-12-13T19:35:07.035Z,3.30
2018-12-13T19:39:09.640Z,3.30
2018-12-13T19:43:12.277Z,3.30
2018-12-13T19:47:14.872Z,3.30
2018-12-13T19:51:17.536Z,3.30
2018-12-13T19:55:20.265Z,3.30
2018-12-13T19:59:22.909Z,3.30
2018-12-13T20:03:25.516Z,3.30
2018-12-13T20:07:28.180Z,3.30
2018-12-13T20:11:30.893Z,3.30
2018-12-13T20:15:33.497Z,3.30
2018-12-13T20:19:36.397Z,3.30
2018-12-13T20:23:39.021Z,3.30
2018-12-13T20:27:41.729Z,3.30
2018-12-13T20:31:44.397Z,3.30
2018-12-13T20:35:47.014Z,3.30
2018-12-13T20:39:49.656Z,3.30
2018-12-13T20:43:52.543Z,3.30
2018-12-13T20:47:55.210Z,3.30
2018-12-13T20:51:57.825Z,3.30
2018-12-13T20:56:00.449Z,3.30
2018-12-13T21:00:03.288Z,3.30
2018-12-13T21:04:05.908Z,3.30
2018-12-13T21:08:09.033Z,3.30
2018-12-13T21:12:11.643Z,3.30
2018-12-13T21:16:15.094Z,3.30
2018-12-13T21:20:17.711Z,3.30
2018-12-13T21:24:20.323Z,3.30
2018-12-13T21:28:22.906Z,3.30
2018-12-13T21:32:25.543Z,3.30
2018-12-13T21:36:28.156Z,3.30
2018-12-13T21:40:30.816Z,3.30
2018-12-13T21:44:33.420Z,3.30
2018-12-13T21:48:36.072Z,3.30
2018-12-13T21:52:38.692Z,3.30
2018-12-13T21:56:42.305Z,3.30
2018-12-13T22:00:44.920Z,3.30
2018-12-13T22:04:47.585Z,3.30
2018-12-13T22:08:50.184Z,3.30
2018-12-13T22:12:52.788Z,3.30
2018-12-13T22:16:56.318Z,3.30
2018-12-13T22:20:59.152Z,3.30
2018-12-13T22:25:01.746Z,3.30
2018-12-13T22:29:04.372Z,3.30
2018-12-13T22:33:06.997Z,3.30
2018-12-13T22:37:09.720Z,3.30
2018-12-13T22:41:12.347Z,3.30
2018-12-13T22:45:14.957Z,3.30
2018-12-13T22:49:17.569Z,3.30
2018-12-13T22:53:20.233Z,3.40
2018-12-13T22:57:23.034Z,3.40
2018-12-13T23:01:25.788Z,3.40
2018-12-13T23:05:29.631Z,3.40
2018-12-13T23:09:33.394Z,3.40
2018-12-13T23:13:36.033Z,3.40
2018-12-13T23:17:38.922Z,3.40
2018-12-13T23:21:41.535Z,3.40
2018-12-13T23:25:44.138Z,3.40
2018-12-13T23:29:47.270Z,3.40
2018-12-13T23:33:49.897Z,3.50
2018-12-13T23:37:52.588Z,3.50
2018-12-13T23:41:55.213Z,3.40
2018-12-13T23:45:57.801Z,3.40
2018-12-13T23:50:00.409Z,3.40
2018-12-13T23:54:03.029Z,3.40
2018-12-13T23:58:05.630Z,3.40
